createdAt,value
2023-10-29T00:03:20.383Z,10.48
2023-10-29T00:08:23.243Z,10.31
2023-10-29T00:13:26.505Z,10.44
2023-10-29T00:18:29.321Z,10.26
2023-10-29T00:23:33.037Z,10.17
2023-10-29T00:28:35.819Z,10.21
2023-10-29T00:33:39.683Z,9.83
2023-10-29T00:38:42.740Z,9.33
2023-10-29T00:43:45.532Z,9.21
2023-10-29T00:48:49.406Z,9.25
2023-10-29T00:53:52.719Z,9.18
2023-10-29T00:58:56.335Z,9.07
2023-10-29T01:03:59.497Z,9.31
2023-10-29T01:09:02.524Z,9.51
2023-10-29T01:14:05.407Z,9.73
2023-10-29T01:19:08.082Z,9.84
2023-10-29T01:24:10.717Z,9.76
2023-10-29T01:29:13.344Z,9.69
2023-10-29T01:34:17.313Z,9.60
2023-10-29T01:39:20.012Z,9.30
2023-10-29T01:44:24.621Z,9.10
2023-10-29T01:49:27.339Z,8.93
2023-10-29T01:54:29.980Z,8.99
2023-10-29T01:59:33.595Z,8.96
2023-10-29T02:04:36.407Z,9.18
2023-10-29T02:09:40.755Z,9.23
2023-10-29T02:14:43.603Z,9.38
2023-10-29T02:19:46.383Z,9.65
2023-10-29T02:24:49.188Z,9.75
2023-10-29T02:29:52.082Z,9.63
2023-10-29T02:34:54.860Z,9.61
2023-10-29T02:39:57.503Z,9.64
2023-10-29T02:45:00.393Z,9.36
2023-10-29T02:50:03.960Z,9.27
2023-10-29T02:55:08.219Z,9.30
2023-10-29T03:00:13.624Z,9.26
2023-10-29T03:05:16.509Z,9.27
2023-10-29T03:10:19.282Z,9.30
2023-10-29T03:15:21.925Z,9.40
2023-10-29T03:20:24.631Z,9.29
2023-10-29T03:25:27.844Z,9.14
2023-10-29T03:30:30.998Z,9.20
2023-10-29T03:35:33.677Z,9.14
2023-10-29T03:40:38.137Z,9.16
2023-10-29T03:45:40.995Z,9.11
2023-10-29T03:50:44.333Z,9.02
2023-10-29T03:55:51.381Z,9.11
2023-10-29T04:00:54.216Z,9.29
2023-10-29T04:05:57.720Z,9.17
2023-10-29T04:11:01.250Z,8.79
2023-10-29T04:16:04.778Z,9.17
2023-10-29T04:21:07.675Z,9.59
2023-10-29T04:26:10.537Z,9.17
2023-10-29T04:31:13.227Z,9.11
2023-10-29T04:36:23.590Z,9.17
2023-10-29T04:41:26.349Z,8.88
2023-10-29T04:46:29.040Z,9.01
2023-10-29T04:51:31.805Z,9.03
2023-10-29T04:56:34.634Z,9.14
2023-10-29T05:01:37.418Z,9.22
2023-10-29T05:06:40.177Z,9.21
2023-10-29T05:11:42.867Z,8.98
2023-10-29T05:16:45.900Z,9.20
2023-10-29T05:21:48.768Z,9.05
2023-10-29T05:26:51.663Z,9.17
2023-10-29T05:31:54.848Z,8.91
2023-10-29T05:36:57.477Z,9.05
2023-10-29T05:42:00.144Z,8.88
2023-10-29T05:47:03.074Z,8.88
2023-10-29T05:52:06.042Z,8.96
2023-10-29T05:57:09.109Z,9.36
2023-10-29T06:02:13.213Z,9.24
2023-10-29T06:07:15.893Z,8.95
2023-10-29T06:12:19.525Z,9.16
2023-10-29T06:17:27.299Z,9.04
2023-10-29T06:22:30.630Z,9.04
2023-10-29T06:27:33.395Z,8.99
2023-10-29T06:32:36.180Z,9.27
2023-10-29T06:37:38.966Z,9.04
2023-10-29T06:42:41.640Z,9.01
2023-10-29T06:47:44.502Z,8.96
2023-10-29T06:52:47.709Z,8.74
2023-10-29T06:57:50.686Z,9.05
2023-10-29T07:02:53.574Z,8.78
2023-10-29T07:07:56.700Z,8.44
2023-10-29T07:12:59.388Z,8.84
2023-10-29T07:18:02.139Z,8.68
2023-10-29T07:23:04.954Z,8.30
2023-10-29T07:28:08.798Z,8.41
2023-10-29T07:33:12.644Z,8.52
2023-10-29T07:38:15.616Z,8.37
2023-10-29T07:43:18.252Z,8.28
2023-10-29T07:48:22.684Z,7.98
2023-10-29T07:53:27.753Z,8.23
2023-10-29T07:58:30.377Z,8.63
2023-10-29T08:03:33.220Z,8.62
2023-10-29T08:08:36.860Z,8.50
2023-10-29T08:13:39.511Z,8.89
2023-10-29T08:18:42.858Z,11.11
2023-10-29T08:23:46.223Z,10.85
2023-10-29T08:28:48.962Z,10.86
2023-10-29T08:33:51.709Z,11.16
2023-10-29T08:38:54.394Z,13.03
2023-10-29T08:43:57.258Z,14.61
2023-10-29T08:49:00.178Z,14.79
2023-10-29T08:54:04.076Z,14.40
2023-10-29T08:59:07.354Z,14.95
2023-10-29T09:04:11.523Z,15.60
2023-10-29T09:09:14.512Z,15.47
2023-10-29T09:14:17.473Z,15.79
2023-10-29T09:19:20.616Z,15.43
2023-10-29T09:24:23.511Z,15.13
2023-10-29T09:29:27.465Z,15.33
2023-10-29T09:34:30.471Z,16.01
2023-10-29T09:39:33.080Z,15.44
2023-10-29T09:44:40.741Z,15.26
2023-10-29T09:49:44.216Z,15.43
2023-10-29T09:54:48.384Z,15.53
2023-10-29T09:59:51.473Z,15.38
2023-10-29T10:04:56.361Z,14.96
2023-10-29T10:09:59.590Z,14.88
2023-10-29T10:15:06.574Z,15.88
2023-10-29T10:20:12.389Z,16.04
2023-10-29T10:25:20.973Z,15.25
2023-10-29T10:30:40.244Z,16.19
2023-10-29T10:35:56.033Z,16.01
2023-10-29T10:41:00.234Z,16.33
2023-10-29T10:46:04.790Z,16.36
2023-10-29T10:51:12.280Z,16.01
2023-10-29T10:56:15.186Z,16.19
2023-10-29T11:01:18.949Z,16.27
2023-10-29T11:06:22.685Z,16.52
2023-10-29T11:11:36.351Z,16.24
2023-10-29T11:16:57.264Z,16.60
2023-10-29T11:22:30.824Z,16.43
2023-10-29T11:27:47.724Z,16.69
2023-10-29T11:33:22.980Z,16.68
2023-10-29T11:38:38.989Z,16.49
2023-10-29T11:43:41.688Z,16.76
2023-10-29T11:49:04.258Z,16.70
2023-10-29T11:54:07.487Z,16.42
2023-10-29T11:59:10.374Z,16.93
2023-10-29T12:04:16.359Z,16.91
2023-10-29T12:09:26.380Z,16.70
2023-10-29T12:14:45.047Z,16.70
2023-10-29T12:19:48.544Z,16.87
2023-10-29T12:25:01.508Z,17.34
2023-10-29T12:30:05.628Z,17.29
2023-10-29T12:35:08.625Z,16.79
2023-10-29T12:40:14.008Z,16.73
2023-10-29T12:45:34.098Z,16.15
2023-10-29T12:50:48.218Z,15.63
2023-10-29T12:55:51.585Z,15.83
2023-10-29T13:00:56.986Z,15.64
2023-10-29T13:06:00.241Z,16.05
2023-10-29T13:11:04.160Z,15.61
2023-10-29T13:16:07.080Z,15.84
2023-10-29T13:21:09.833Z,15.84
2023-10-29T13:26:12.678Z,15.93
2023-10-29T13:31:15.375Z,15.99
2023-10-29T13:36:18.242Z,15.70
2023-10-29T13:41:21.681Z,15.84
2023-10-29T13:46:24.404Z,16.14
2023-10-29T13:51:27.551Z,16.69
2023-10-29T13:56:30.466Z,17.07
2023-10-29T14:01:33.647Z,16.96
2023-10-29T14:06:36.635Z,16.79
2023-10-29T14:11:39.541Z,16.99
2023-10-29T14:16:42.667Z,16.84
2023-10-29T14:21:49.339Z,17.10
2023-10-29T14:26:53.288Z,17.08
2023-10-29T14:31:56.138Z,17.24
2023-10-29T14:36:58.961Z,17.67
2023-10-29T14:42:01.647Z,17.71
2023-10-29T14:47:04.652Z,17.44
2023-10-29T14:52:07.493Z,17.51
2023-10-29T14:57:26.139Z,17.59
2023-10-29T15:02:33.019Z,17.54
2023-10-29T15:07:35.655Z,17.50
2023-10-29T15:12:38.612Z,17.19
2023-10-29T15:17:41.508Z,17.18
2023-10-29T15:22:44.135Z,17.46
2023-10-29T15:27:46.807Z,17.70
2023-10-29T15:32:49.750Z,17.70
2023-10-29T15:37:53.225Z,17.84
2023-10-29T15:42:55.932Z,17.90
2023-10-29T15:47:58.708Z,18.02
2023-10-29T15:53:01.532Z,18.14
2023-10-29T15:58:04.197Z,18.14
2023-10-29T16:03:06.968Z,18.27
2023-10-29T16:08:10.026Z,18.43
2023-10-29T16:13:12.844Z,18.42
2023-10-29T16:18:15.543Z,18.45
2023-10-29T16:23:18.194Z,18.45
2023-10-29T16:28:20.879Z,18.50
2023-10-29T16:33:23.753Z,18.47
2023-10-29T16:38:28.952Z,18.52
2023-10-29T16:43:33.124Z,18.67
2023-10-29T16:48:36.943Z,18.69
2023-10-29T16:53:40.693Z,18.62
2023-10-29T16:58:43.895Z,18.59
2023-10-29T17:03:48.837Z,18.62
2023-10-29T17:08:51.779Z,18.61
2023-10-29T17:13:54.891Z,18.66
2023-10-29T17:18:57.672Z,18.77
2023-10-29T17:24:00.925Z,18.86
2023-10-29T17:29:03.699Z,18.98
2023-10-29T17:34:06.502Z,19.03
2023-10-29T17:39:13.827Z,19.04
2023-10-29T17:44:16.988Z,19.24
2023-10-29T17:49:19.808Z,19.44
2023-10-29T17:54:22.558Z,19.45
2023-10-29T17:59:26.747Z,19.49
2023-10-29T18:04:29.470Z,19.62
2023-10-29T18:09:33.396Z,19.71
2023-10-29T18:14:37.506Z,19.75
2023-10-29T18:19:40.343Z,19.71
2023-10-29T18:24:44.064Z,19.44
2023-10-29T18:29:47.564Z,19.65
2023-10-29T18:34:50.443Z,19.58
2023-10-29T18:39:53.298Z,19.71
2023-10-29T18:44:56.067Z,19.72
2023-10-29T18:49:59.018Z,19.76
2023-10-29T18:55:01.903Z,19.75
2023-10-29T19:00:08.520Z,19.67
2023-10-29T19:05:12.821Z,19.74
2023-10-29T19:10:15.558Z,19.93
2023-10-29T19:15:20.600Z,19.93
2023-10-29T19:20:23.520Z,19.98
2023-10-29T19:25:26.171Z,20.12
2023-10-29T19:30:28.924Z,20.11
2023-10-29T19:35:32.905Z,20.06
2023-10-29T19:40:35.631Z,20.25
2023-10-29T19:45:38.301Z,20.35
2023-10-29T19:50:41.728Z,20.52
2023-10-29T19:55:44.368Z,20.57
2023-10-29T20:00:48.833Z,20.64
2023-10-29T20:05:54.693Z,20.72
2023-10-29T20:10:57.437Z,20.67
2023-10-29T20:16:00.151Z,20.63
2023-10-29T20:21:05.164Z,20.63
2023-10-29T20:26:20.451Z,20.50
2023-10-29T20:31:23.459Z,20.36
2023-10-29T20:36:26.543Z,20.33
2023-10-29T20:41:29.784Z,20.49
2023-10-29T20:46:33.916Z,20.51
2023-10-29T20:51:36.815Z,20.53
2023-10-29T20:56:39.867Z,20.58
2023-10-29T21:01:42.958Z,20.56
2023-10-29T21:06:45.857Z,20.70
2023-10-29T21:11:48.524Z,20.93
2023-10-29T21:16:51.359Z,20.79
2023-10-29T21:21:54.183Z,20.51
2023-10-29T21:26:57.187Z,19.92
2023-10-29T21:32:00.294Z,19.47
2023-10-29T21:37:03.828Z,19.03
2023-10-29T21:42:07.026Z,19.23
2023-10-29T21:47:09.776Z,19.55
2023-10-29T21:52:12.480Z,19.53
2023-10-29T21:57:15.122Z,19.39
2023-10-29T22:02:17.893Z,19.00
2023-10-29T22:07:20.566Z,19.07
2023-10-29T22:12:23.301Z,19.03
2023-10-29T22:17:26.167Z,18.56
2023-10-29T22:22:29.447Z,18.01
2023-10-29T22:27:32.159Z,17.96
2023-10-29T22:32:34.981Z,18.16
2023-10-29T22:37:37.804Z,17.87
2023-10-29T22:42:40.508Z,18.24
2023-10-29T22:47:43.546Z,18.28
2023-10-29T22:52:46.448Z,18.59
2023-10-29T22:57:49.779Z,18.44
2023-10-29T23:02:54.259Z,18.11
2023-10-29T23:07:57.641Z,18.45
2023-10-29T23:13:00.795Z,18.13
2023-10-29T23:18:03.601Z,18.01
2023-10-29T23:23:08.246Z,17.82
2023-10-29T23:28:19.534Z,17.73
2023-10-29T23:33:30.884Z,17.64
2023-10-29T23:38:33.785Z,18.25
2023-10-29T23:43:36.444Z,18.38
2023-10-29T23:48:39.461Z,18.01
2023-10-29T23:53:42.567Z,17.65
2023-10-29T23:58:45.375Z,17.55
